Impacts METAR Board
IDs:

KLAS - Las Vegas/McCarran I, NV, US

Updated at: 1700 UTC 22 May 2018
Potential Impact None Slight Moderate High
Time 22/05Z 22/06Z 22/07Z 22/08Z 22/09Z 22/10Z 22/11Z 22/12Z 22/13Z 22/14Z 22/15Z 22/16Z 22/17Z
Temp76 76 77 75 73 72 72 68 67 69 73 77 79
Dewpt38 38 38 39 39 40 39 38 38 39 39 40 40
Altim29.74 29.74 29.73 29.74 29.73 29.73 29.74 29.75 29.77 29.79 29.81 29.82 29.82
VIS10 10 10 10 10 10 10 10 10 10 10 10 10
CIG220 150 150 220 240 -- -- 240 240 -- -- -- --
CoverBKNOVCBKNBKNBKNSCTSCTBKNBKNSCTSCTSCTSCT
FltCatVFRVFRVFRVFRVFRVFRVFRVFRVFRVFRVFRVFRVFR
WX--------------------------
WDir33033032036060301020002200050
WSpd14 12 12 6 4 9 7 3 0 3 0 0 6
WGst19 -- -- -- -- -- -- -- -- -- -- -- --
Raw hourly METARs
KLAS 220456Z 33014G19KT 10SM FEW100 SCT170 BKN220 24/03 A2974 RMK AO2 SLP050 T02440033
KLAS 220556Z 33012KT 10SM FEW100 BKN150 OVC220 24/03 A2974 RMK AO2 SLP048 T02440033 10283 20239 50005
KLAS 220656Z 32012KT 10SM SCT120 BKN150 BKN220 25/03 A2973 RMK AO2 SLP047 T02500033
KLAS 220756Z 36006KT 10SM FEW120 FEW150 BKN220 24/04 A2974 RMK AO2 SLP047 T02390039 402940228
KLAS 220856Z 06004KT 10SM FEW120 FEW150 BKN240 23/04 A2973 RMK AO2 SLP044 T02280039 58003
KLAS 220956Z 03009KT 10SM FEW150 SCT240 22/04 A2973 RMK AO2 SLP046 T02220044
KLAS 221056Z 01007KT 10SM FEW150 SCT240 22/04 A2974 RMK AO2 SLP049 T02220039
KLAS 221156Z 20003KT 10SM FEW120 FEW180 BKN240 20/03 A2975 RMK AO2 SLP052 T02000033 10250 20200 52005
KLAS 221256Z 00000KT 10SM FEW120 SCT180 BKN240 19/03 A2977 RMK AO2 SLP058 T01940033
KLAS 221356Z 22003KT 10SM FEW120 SCT180 SCT250 21/04 A2979 RMK AO2 SLP068 ACC DSNT N AND E T02060039
KLAS 221456Z 00000KT 10SM FEW120 SCT180 SCT250 23/04 A2981 RMK AO2 SLP073 ACC DSNT E T02280039 51020
KLAS 221556Z 00000KT 10SM FEW120 SCT150 SCT250 25/04 A2982 RMK AO2 SLP076 ACC DSNT NE-E T02500044
KLAS 221656Z 05006KT 10SM FEW110 SCT150 SCT250 26/04 A2982 RMK AO2 SLP075 CB DSNT NW ACC DSNT NE-E T02610044



Page loaded:  17:50 UTC  |   10:50 AM Pacific  |   11:50 AM Mountain  |   12:50 PM Central  |   01:50 PM Eastern

 

ADVISORIES

FORECASTS

FORECASTS

OBSERVATIONS

USER TOOLS

ABOUT US